Industry, Kansas
Current Conditions -  °F | °C
As of 8:58 PM on Thursday 27 Nov 2014 (Local Time) from KFRI Reporting Station
Clear Clear  
Wind Chill: 27°   Ceiling: Unl
Heat Index: 36°   Visibility: 10mi
Dew Point: 18°   Wind: 14mph
Humidity: 48%   Direction: 170°S
Pressure: 30.21"   Gusts: NA
Location:  39.0421°N, 97.1702°W
Report Text: KFRI 280258Z AUTO 17012KT 10SM CLR 02/M08 A3021 RMK AO2 SLP241 P0000 60000 T00211080 57023
Loading
Personal Weather Stations






























Interactive Weather Map New forecast layout! Learn more

10-Day Weather Forecast

Advertisements
Track Severe Weather on mobile